createdAt,value
2018-09-01T00:00:51.226Z,468.00
2018-09-01T00:01:50.896Z,492.00
2018-09-01T00:02:50.884Z,504.00
2018-09-01T00:03:51.225Z,508.00
2018-09-01T00:04:51.213Z,508.00
2018-09-01T00:05:51.212Z,456.00
2018-09-01T00:06:50.852Z,452.00
2018-09-01T00:07:50.856Z,440.00
2018-09-01T00:08:50.856Z,452.00
2018-09-01T00:09:51.164Z,480.00
2018-09-01T00:10:51.156Z,488.00
2018-09-01T00:11:50.814Z,492.00
2018-09-01T00:12:50.817Z,492.00
2018-09-01T00:13:51.191Z,512.00
2018-09-01T00:14:50.826Z,520.00
2018-09-01T00:15:51.117Z,528.00
2018-09-01T00:16:51.117Z,520.00
2018-09-01T00:17:51.126Z,512.00
2018-09-01T00:18:50.770Z,488.00
2018-09-01T00:19:51.090Z,500.00
2018-09-01T00:20:50.761Z,484.00
2018-09-01T00:21:50.742Z,492.00
2018-09-01T00:22:51.089Z,508.00
2018-09-01T00:23:51.067Z,516.00
2018-09-01T00:24:51.084Z,524.00
2018-09-01T00:25:51.058Z,532.00
2018-09-01T00:26:50.707Z,536.00
2018-09-01T00:27:50.730Z,516.00
2018-09-01T00:28:51.025Z,520.00
2018-09-01T00:29:51.030Z,532.00
2018-09-01T00:30:51.009Z,532.00
2018-09-01T00:31:51.024Z,532.00
2018-09-01T00:32:50.663Z,536.00
2018-09-01T00:33:50.659Z,540.00
2018-09-01T00:34:51.001Z,544.00
2018-09-01T00:35:50.995Z,548.00
2018-09-01T00:36:50.636Z,548.00
2018-09-01T00:37:50.633Z,556.00
2018-09-01T00:38:50.967Z,560.00
2018-09-01T00:39:50.952Z,552.00
2018-09-01T00:40:50.948Z,548.00
2018-09-01T00:41:50.954Z,572.00
2018-09-01T00:42:50.935Z,576.00
2018-09-01T00:43:50.923Z,580.00
2018-09-01T00:44:50.933Z,584.00
2018-09-01T00:45:50.932Z,580.00
2018-09-01T00:46:50.574Z,568.00
2018-09-01T00:47:50.558Z,576.00
2018-09-01T00:48:50.563Z,568.00
2018-09-01T00:49:50.874Z,580.00
2018-09-01T00:50:50.875Z,584.00
2018-09-01T00:51:50.865Z,572.00
2018-09-01T00:52:50.852Z,564.00
2018-09-01T00:53:50.524Z,560.00
2018-09-01T00:54:50.514Z,544.00
2018-09-01T00:55:50.837Z,552.00
2018-09-01T00:56:50.495Z,556.00
2018-09-01T00:57:50.494Z,560.00
2018-09-01T00:58:50.480Z,556.00
2018-09-01T00:59:50.821Z,560.00
2018-09-01T01:00:50.463Z,556.00
2018-09-01T01:01:50.813Z,544.00
2018-09-01T01:02:50.806Z,556.00
2018-09-01T01:03:50.774Z,564.00
2018-09-01T01:04:50.785Z,564.00
2018-09-01T01:05:50.433Z,556.00
2018-09-01T01:06:50.760Z,560.00
2018-09-01T01:07:50.748Z,556.00
2018-09-01T01:08:50.417Z,548.00
2018-09-01T01:09:50.763Z,544.00
2018-09-01T01:10:50.406Z,536.00
2018-09-01T01:11:50.732Z,536.00
2018-09-01T01:12:50.388Z,536.00
2018-09-01T01:13:50.729Z,528.00
2018-09-01T01:14:50.372Z,528.00
2018-09-01T01:15:50.693Z,528.00
2018-09-01T01:16:50.703Z,536.00
2018-09-01T01:17:50.341Z,544.00
2018-09-01T01:18:50.351Z,548.00
2018-09-01T01:19:50.666Z,548.00
2018-09-01T01:20:50.669Z,568.00
2018-09-01T01:21:50.651Z,556.00
2018-09-01T01:22:50.312Z,564.00
2018-09-01T01:23:50.296Z,556.00
2018-09-01T01:24:50.634Z,564.00
2018-09-01T01:25:50.298Z,568.00
2018-09-01T01:26:50.612Z,580.00
2018-09-01T01:27:50.283Z,592.00
2018-09-01T01:28:50.276Z,608.00
2018-09-01T01:29:50.594Z,592.00
2018-09-01T01:30:50.251Z,568.00
2018-09-01T01:31:50.598Z,560.00
2018-09-01T01:32:50.242Z,560.00
2018-09-01T01:33:50.567Z,552.00
2018-09-01T01:34:50.235Z,552.00
2018-09-01T01:35:50.222Z,548.00
2018-09-01T01:36:50.563Z,564.00
2018-09-01T01:37:50.540Z,576.00
2018-09-01T01:38:50.538Z,568.00
2018-09-01T01:39:50.515Z,580.00
2018-09-01T01:40:50.188Z,588.00
2018-09-01T01:41:50.513Z,596.00
2018-09-01T01:42:50.169Z,620.00
2018-09-01T01:43:50.517Z,640.00
2018-09-01T01:44:50.509Z,616.00
2018-09-01T01:45:50.477Z,652.00
2018-09-01T01:46:50.469Z,680.00
2018-09-01T01:47:50.470Z,668.00
2018-09-01T01:48:50.462Z,668.00
2018-09-01T01:49:50.474Z,656.00
2018-09-01T01:50:50.120Z,648.00
2018-09-01T01:51:50.440Z,628.00
2018-09-01T01:52:50.443Z,616.00
2018-09-01T01:53:50.445Z,592.00
2018-09-01T01:54:50.112Z,596.00
2018-09-01T01:55:50.071Z,584.00
2018-09-01T01:56:50.079Z,584.00
2018-09-01T01:57:50.399Z,588.00
2018-09-01T01:58:50.411Z,624.00
2018-09-01T01:59:50.059Z,628.00
2018-09-01T02:00:50.395Z,636.00
2018-09-01T02:01:50.387Z,628.00
2018-09-01T02:02:50.031Z,644.00
2018-09-01T02:03:50.355Z,644.00
2018-09-01T02:04:50.018Z,592.00
2018-09-01T02:05:50.342Z,588.00
2018-09-01T02:06:50.003Z,584.00
2018-09-01T02:07:50.344Z,592.00
2018-09-01T02:08:49.993Z,608.00
2018-09-01T02:09:50.326Z,576.00
2018-09-01T02:10:50.015Z,580.00
2018-09-01T02:11:50.302Z,584.00
2018-09-01T02:12:50.304Z,564.00
2018-09-01T02:13:50.285Z,552.00
2018-09-01T02:14:49.972Z,544.00
2018-09-01T02:15:50.272Z,544.00
2018-09-01T02:16:50.281Z,556.00
2018-09-01T02:17:50.254Z,560.00
2018-09-01T02:18:49.911Z,556.00
2018-09-01T02:19:50.248Z,552.00
2018-09-01T02:20:50.257Z,544.00
2018-09-01T02:21:50.246Z,536.00
2018-09-01T02:22:49.898Z,536.00
2018-09-01T02:23:49.890Z,540.00
2018-09-01T02:24:49.873Z,536.00
2018-09-01T02:25:50.201Z,524.00
2018-09-01T02:26:49.873Z,528.00
2018-09-01T02:27:49.881Z,524.00
2018-09-01T02:28:50.175Z,520.00
2018-09-01T02:29:49.838Z,516.00
2018-09-01T02:30:49.833Z,520.00
2018-09-01T02:31:50.173Z,516.00
2018-09-01T02:32:49.819Z,520.00
2018-09-01T02:33:50.172Z,532.00
2018-09-01T02:34:50.139Z,540.00
2018-09-01T02:35:50.128Z,540.00
2018-09-01T02:36:49.792Z,540.00
2018-09-01T02:37:50.135Z,540.00
2018-09-01T02:38:50.129Z,536.00
2018-09-01T02:39:50.120Z,532.00
2018-09-01T02:40:49.772Z,524.00
2018-09-01T02:41:49.760Z,520.00
2018-09-01T02:42:50.083Z,520.00
2018-09-01T02:43:49.740Z,512.00
2018-09-01T02:44:50.083Z,508.00
2018-09-01T02:45:49.738Z,504.00
2018-09-01T02:46:49.713Z,508.00
2018-09-01T02:47:49.720Z,508.00
2018-09-01T02:48:50.044Z,504.00
2018-09-01T02:49:50.036Z,512.00
2018-09-01T02:50:49.716Z,520.00
2018-09-01T02:51:49.692Z,524.00
2018-09-01T02:52:50.028Z,520.00
2018-09-01T02:53:50.008Z,524.00
2018-09-01T02:54:49.669Z,524.00
2018-09-01T02:55:49.988Z,528.00
2018-09-01T02:56:49.995Z,528.00
2018-09-01T02:57:49.652Z,524.00
2018-09-01T02:58:49.634Z,520.00
2018-09-01T02:59:49.988Z,516.00
2018-09-01T03:00:49.618Z,508.00
2018-09-01T03:01:49.959Z,512.00
2018-09-01T03:02:49.936Z,508.00
2018-09-01T03:03:49.945Z,508.00
2018-09-01T03:04:49.602Z,508.00
2018-09-01T03:05:49.598Z,516.00
2018-09-01T03:06:49.912Z,512.00
2018-09-01T03:07:49.909Z,512.00
2018-09-01T03:08:49.905Z,512.00
2018-09-01T03:09:49.912Z,508.00
2018-09-01T03:10:49.907Z,508.00
2018-09-01T03:11:49.552Z,504.00
2018-09-01T03:12:49.538Z,500.00
2018-09-01T03:13:49.867Z,500.00
2018-09-01T03:14:49.540Z,500.00
2018-09-01T03:15:49.528Z,496.00
2018-09-01T03:16:49.846Z,496.00
2018-09-01T03:17:49.846Z,492.00
2018-09-01T03:18:49.494Z,496.00
2018-09-01T03:19:49.493Z,492.00
2018-09-01T03:20:49.835Z,492.00
2018-09-01T03:21:49.480Z,496.00
2018-09-01T03:22:49.473Z,496.00
2018-09-01T03:23:49.478Z,496.00
2018-09-01T03:24:49.802Z,496.00
2018-09-01T03:25:49.776Z,492.00
2018-09-01T03:26:49.442Z,496.00
2018-09-01T03:27:49.437Z,496.00
2018-09-01T03:28:49.439Z,492.00
2018-09-01T03:29:49.772Z,492.00
2018-09-01T03:30:49.764Z,492.00
2018-09-01T03:31:49.412Z,492.00
2018-09-01T03:32:49.735Z,496.00
2018-09-01T03:33:49.753Z,496.00
2018-09-01T03:34:49.396Z,496.00
2018-09-01T03:35:49.379Z,492.00
2018-09-01T03:36:49.372Z,492.00
2018-09-01T03:37:49.379Z,492.00
2018-09-01T03:38:49.718Z,488.00
2018-09-01T03:39:49.352Z,484.00
2018-09-01T03:40:49.348Z,480.00
2018-09-01T03:41:49.694Z,472.00
2018-09-01T03:42:49.682Z,468.00
2018-09-01T03:43:49.657Z,460.00
2018-09-01T03:44:49.315Z,464.00
2018-09-01T03:45:49.646Z,460.00
2018-09-01T03:46:49.633Z,456.00
2018-09-01T03:47:49.639Z,456.00
2018-09-01T03:48:49.300Z,456.00
2018-09-01T03:49:49.639Z,452.00
2018-09-01T03:50:49.278Z,456.00
2018-09-01T03:51:49.278Z,452.00
2018-09-01T03:52:49.271Z,456.00
2018-09-01T03:53:49.254Z,452.00
2018-09-01T03:54:49.255Z,452.00
2018-09-01T03:55:49.236Z,448.00
2018-09-01T03:56:49.571Z,444.00
2018-09-01T03:57:49.580Z,444.00
2018-09-01T03:58:49.573Z,448.00
2018-09-01T03:59:49.561Z,452.00
2018-09-01T04:00:49.556Z,452.00
2018-09-01T04:01:49.200Z,452.00
2018-09-01T04:02:49.544Z,452.00
2018-09-01T04:03:49.539Z,452.00
2018-09-01T04:04:49.513Z,452.00
2018-09-01T04:05:49.523Z,452.00
2018-09-01T04:06:49.497Z,452.00
2018-09-01T04:07:49.855Z,452.00
2018-09-01T04:08:49.490Z,452.00
2018-09-01T04:09:49.195Z,456.00
2018-09-01T04:10:49.145Z,452.00
2018-09-01T04:11:49.482Z,452.00
2018-09-01T04:12:49.472Z,456.00
2018-09-01T04:13:49.470Z,452.00
2018-09-01T04:14:49.100Z,444.00
2018-09-01T04:15:49.459Z,436.00
2018-09-01T04:16:49.437Z,436.00
2018-09-01T04:17:49.101Z,444.00
2018-09-01T04:18:49.427Z,444.00
2018-09-01T04:19:49.428Z,452.00
2018-09-01T04:20:49.076Z,448.00
2018-09-01T04:21:49.049Z,456.00
2018-09-01T04:22:49.407Z,456.00
2018-09-01T04:23:49.379Z,460.00
2018-09-01T04:24:49.035Z,460.00
2018-09-01T04:25:49.367Z,456.00
2018-09-01T04:26:49.369Z,456.00
2018-09-01T04:27:49.022Z,456.00
2018-09-01T04:28:49.005Z,452.00
2018-09-01T04:29:49.353Z,456.00
2018-09-01T04:30:49.004Z,460.00
2018-09-01T04:31:49.018Z,456.00
2018-09-01T04:32:48.985Z,456.00
2018-09-01T04:33:49.307Z,464.00
2018-09-01T04:34:49.305Z,464.00
2018-09-01T04:35:49.292Z,464.00
2018-09-01T04:36:49.309Z,460.00
2018-09-01T04:37:48.949Z,456.00
2018-09-01T04:38:48.954Z,460.00
2018-09-01T04:39:49.283Z,456.00
2018-09-01T04:40:49.280Z,452.00
2018-09-01T04:41:49.260Z,452.00
2018-09-01T04:42:48.913Z,452.00
2018-09-01T04:43:49.256Z,452.00
2018-09-01T04:44:49.254Z,452.00
2018-09-01T04:45:49.225Z,452.00
2018-09-01T04:46:49.220Z,460.00
2018-09-01T04:47:49.210Z,456.00
2018-09-01T04:48:48.874Z,448.00
2018-09-01T04:49:49.199Z,444.00
2018-09-01T04:50:48.862Z,444.00
2018-09-01T04:51:48.868Z,436.00
2018-09-01T04:52:49.175Z,428.00
2018-09-01T04:53:48.838Z,424.00
2018-09-01T04:54:48.829Z,424.00
2018-09-01T04:55:48.838Z,428.00
2018-09-01T04:56:48.820Z,432.00
2018-09-01T04:57:48.814Z,436.00
2018-09-01T04:58:49.144Z,440.00
2018-09-01T04:59:49.132Z,444.00
2018-09-01T05:00:49.162Z,444.00
2018-09-01T05:01:48.783Z,456.00
2018-09-01T05:02:48.779Z,456.00
2018-09-01T05:03:48.760Z,460.00
2018-09-01T05:04:49.096Z,460.00
2018-09-01T05:05:49.096Z,460.00
2018-09-01T05:06:48.751Z,460.00
2018-09-01T05:07:49.105Z,460.00
2018-09-01T05:08:49.086Z,460.00
2018-09-01T05:09:48.723Z,460.00
2018-09-01T05:10:49.064Z,452.00
2018-09-01T05:11:49.041Z,448.00
2018-09-01T05:12:49.034Z,440.00
2018-09-01T05:13:48.713Z,436.00
2018-09-01T05:14:48.686Z,436.00
2018-09-01T05:15:49.036Z,436.00
2018-09-01T05:16:49.032Z,428.00
2018-09-01T05:17:48.999Z,424.00
2018-09-01T05:18:48.667Z,424.00
2018-09-01T05:19:48.658Z,420.00
2018-09-01T05:20:48.654Z,408.00
2018-09-01T05:21:48.975Z,408.00
2018-09-01T05:22:48.645Z,412.00
2018-09-01T05:23:49.046Z,428.00
2018-09-01T05:24:48.624Z,432.00
2018-09-01T05:25:48.961Z,432.00
2018-09-01T05:26:48.941Z,436.00
2018-09-01T05:27:48.608Z,436.00
2018-09-01T05:28:48.931Z,436.00
2018-09-01T05:29:48.929Z,440.00
2018-09-01T05:30:48.942Z,432.00
2018-09-01T05:31:48.911Z,432.00
2018-09-01T05:32:48.575Z,436.00
2018-09-01T05:33:48.919Z,436.00
2018-09-01T05:34:48.545Z,432.00
2018-09-01T05:35:48.549Z,436.00
2018-09-01T05:36:48.886Z,432.00
2018-09-01T05:37:48.535Z,432.00
2018-09-01T05:38:48.866Z,424.00
2018-09-01T05:39:48.527Z,424.00
2018-09-01T05:40:48.852Z,424.00
2018-09-01T05:41:48.859Z,416.00
2018-09-01T05:42:48.849Z,416.00
2018-09-01T05:43:48.870Z,420.00
2018-09-01T05:44:48.635Z,416.00
2018-09-01T05:45:48.492Z,416.00
2018-09-01T05:46:48.475Z,420.00
2018-09-01T05:47:48.463Z,420.00
2018-09-01T05:48:48.457Z,420.00
2018-09-01T05:49:48.800Z,420.00
2018-09-01T05:50:48.862Z,420.00
2018-09-01T05:51:48.439Z,420.00
2018-09-01T05:52:48.431Z,416.00
2018-09-01T05:53:48.758Z,416.00
2018-09-01T05:54:48.421Z,416.00
2018-09-01T05:55:48.417Z,416.00
2018-09-01T05:56:48.409Z,416.00
2018-09-01T05:57:48.727Z,412.00
2018-09-01T05:58:48.729Z,412.00
2018-09-01T05:59:48.378Z,412.00
2018-09-01T06:00:48.727Z,412.00
2018-09-01T06:01:48.696Z,408.00
2018-09-01T06:02:48.360Z,404.00
2018-09-01T06:03:48.357Z,400.00
2018-09-01T06:04:48.679Z,392.00
2018-09-01T06:05:48.709Z,388.00
2018-09-01T06:06:48.686Z,388.00
2018-09-01T06:07:48.321Z,384.00
2018-09-01T06:08:48.316Z,384.00
2018-09-01T06:09:48.654Z,376.00
2018-09-01T06:10:48.653Z,368.00
2018-09-01T06:11:48.645Z,368.00
2018-09-01T06:12:48.309Z,368.00
2018-09-01T06:13:48.615Z,368.00
2018-09-01T06:14:48.602Z,368.00
2018-09-01T06:15:48.266Z,364.00
2018-09-01T06:16:48.269Z,364.00
2018-09-01T06:17:48.375Z,368.00
2018-09-01T06:18:48.585Z,368.00
2018-09-01T06:19:48.599Z,364.00
2018-09-01T06:20:48.239Z,360.00
2018-09-01T06:21:48.567Z,360.00
2018-09-01T06:22:48.568Z,364.00
2018-09-01T06:23:48.282Z,364.00
2018-09-01T06:24:48.226Z,364.00
2018-09-01T06:25:48.213Z,364.00
2018-09-01T06:26:48.523Z,360.00
2018-09-01T06:27:48.175Z,364.00
2018-09-01T06:28:48.527Z,364.00
2018-09-01T06:29:48.160Z,356.00
2018-09-01T06:30:48.506Z,352.00
2018-09-01T06:31:48.150Z,348.00
2018-09-01T06:32:48.159Z,340.00
2018-09-01T06:33:48.143Z,336.00
2018-09-01T06:34:48.138Z,332.00
2018-09-01T06:35:48.125Z,328.00
2018-09-01T06:36:48.117Z,336.00
2018-09-01T06:37:48.440Z,336.00
2018-09-01T06:38:48.100Z,340.00
2018-09-01T06:39:48.429Z,348.00
2018-09-01T06:40:48.432Z,352.00
2018-09-01T06:41:48.424Z,360.00
2018-09-01T06:42:48.410Z,368.00
2018-09-01T06:43:48.068Z,364.00
2018-09-01T06:44:48.410Z,360.00
2018-09-01T06:45:48.390Z,364.00
2018-09-01T06:46:48.049Z,360.00
2018-09-01T06:47:48.045Z,360.00
2018-09-01T06:48:48.364Z,360.00
2018-09-01T06:49:48.374Z,368.00
2018-09-01T06:50:48.372Z,376.00
2018-09-01T06:51:48.354Z,376.00
2018-09-01T06:52:48.349Z,380.00
2018-09-01T06:53:48.336Z,388.00
2018-09-01T06:54:48.349Z,392.00
2018-09-01T06:55:48.319Z,392.00
2018-09-01T06:56:47.983Z,384.00
2018-09-01T06:57:47.972Z,384.00
2018-09-01T06:58:48.294Z,380.00
2018-09-01T06:59:47.990Z,372.00
2018-09-01T07:00:47.983Z,376.00
2018-09-01T07:01:47.949Z,368.00
2018-09-01T07:02:47.938Z,364.00
2018-09-01T07:03:47.939Z,352.00
2018-09-01T07:04:48.276Z,352.00
2018-09-01T07:05:47.908Z,344.00
2018-09-01T07:06:47.912Z,356.00
2018-09-01T07:07:47.930Z,356.00
2018-09-01T07:08:48.270Z,352.00
2018-09-01T07:09:47.915Z,356.00
2018-09-01T07:10:48.242Z,356.00
2018-09-01T07:11:47.869Z,356.00
2018-09-01T07:12:48.203Z,352.00
2018-09-01T07:13:48.196Z,352.00
2018-09-01T07:14:47.845Z,352.00
2018-09-01T07:15:48.203Z,356.00
2018-09-01T07:16:47.831Z,352.00
2018-09-01T07:17:47.857Z,352.00
2018-09-01T07:18:48.153Z,348.00
2018-09-01T07:19:48.145Z,336.00
2018-09-01T07:20:48.163Z,328.00
2018-09-01T07:21:48.153Z,324.00
2018-09-01T07:22:47.816Z,316.00
2018-09-01T07:23:48.125Z,312.00
2018-09-01T07:24:48.135Z,308.00
2018-09-01T07:25:48.105Z,304.00
2018-09-01T07:26:47.778Z,308.00
2018-09-01T07:27:48.096Z,312.00
2018-09-01T07:28:48.111Z,316.00
2018-09-01T07:29:48.097Z,320.00
2018-09-01T07:30:47.953Z,324.00
2018-09-01T07:31:48.068Z,320.00
2018-09-01T07:32:47.730Z,316.00
2018-09-01T07:33:48.066Z,316.00
2018-09-01T07:34:47.728Z,324.00
2018-09-01T07:35:48.060Z,320.00
2018-09-01T07:36:48.034Z,312.00
2018-09-01T07:37:48.021Z,308.00
2018-09-01T07:38:47.696Z,304.00
2018-09-01T07:39:47.689Z,304.00
2018-09-01T07:40:47.665Z,312.00
2018-09-01T07:41:47.996Z,316.00
2018-09-01T07:42:47.995Z,320.00
2018-09-01T07:43:47.994Z,328.00
2018-09-01T07:44:47.644Z,332.00
2018-09-01T07:45:47.964Z,340.00
2018-09-01T07:46:47.981Z,336.00
2018-09-01T07:47:47.970Z,336.00
2018-09-01T07:48:47.609Z,336.00
2018-09-01T07:49:47.940Z,332.00
2018-09-01T07:50:47.949Z,336.00
2018-09-01T07:51:47.947Z,336.00
2018-09-01T07:52:47.922Z,336.00
2018-09-01T07:53:47.931Z,336.00
2018-09-01T07:54:47.567Z,340.00
2018-09-01T07:55:47.901Z,340.00
2018-09-01T07:56:47.917Z,348.00
2018-09-01T07:57:47.584Z,348.00
2018-09-01T07:58:47.875Z,356.00
2018-09-01T07:59:47.870Z,360.00
2018-09-01T08:00:47.887Z,356.00
2018-09-01T08:01:47.875Z,348.00
2018-09-01T08:02:47.525Z,344.00
2018-09-01T08:03:47.858Z,344.00
2018-09-01T08:04:47.495Z,348.00
2018-09-01T08:05:47.846Z,348.00
2018-09-01T08:06:47.839Z,356.00
2018-09-01T08:07:47.487Z,360.00
2018-09-01T08:08:47.475Z,364.00
2018-09-01T08:09:47.820Z,372.00
2018-09-01T08:10:47.806Z,380.00
2018-09-01T08:11:47.466Z,388.00
2018-09-01T08:12:47.794Z,396.00
2018-09-01T08:13:47.795Z,400.00
2018-09-01T08:14:47.432Z,408.00
2018-09-01T08:15:47.424Z,412.00
2018-09-01T08:16:47.754Z,416.00
2018-09-01T08:17:47.765Z,412.00
2018-09-01T08:18:47.400Z,408.00
2018-09-01T08:19:47.731Z,408.00
2018-09-01T08:20:47.398Z,416.00
2018-09-01T08:21:47.717Z,420.00
2018-09-01T08:22:47.702Z,432.00
2018-09-01T08:23:47.377Z,440.00
2018-09-01T08:24:47.701Z,444.00
2018-09-01T08:25:47.347Z,452.00
2018-09-01T08:26:47.379Z,440.00
2018-09-01T08:27:47.338Z,440.00
2018-09-01T08:28:47.666Z,440.00
2018-09-01T08:29:47.327Z,444.00
2018-09-01T08:30:47.327Z,440.00
2018-09-01T08:31:47.317Z,428.00
2018-09-01T08:32:47.635Z,424.00
2018-09-01T08:33:47.702Z,408.00
2018-09-01T08:34:47.642Z,392.00
2018-09-01T08:35:47.619Z,388.00
2018-09-01T08:36:47.280Z,396.00
2018-09-01T08:37:47.604Z,396.00
2018-09-01T08:38:47.269Z,388.00
2018-09-01T08:39:47.610Z,388.00
2018-09-01T08:40:47.601Z,388.00
2018-09-01T08:41:47.247Z,392.00
2018-09-01T08:42:47.563Z,384.00
2018-09-01T08:43:47.579Z,388.00
2018-09-01T08:44:47.217Z,388.00
2018-09-01T08:45:47.564Z,376.00
2018-09-01T08:46:47.552Z,364.00
2018-09-01T08:47:47.552Z,360.00
2018-09-01T08:48:47.192Z,364.00
2018-09-01T08:49:47.521Z,368.00
2018-09-01T08:50:47.516Z,372.00
2018-09-01T08:51:47.528Z,360.00
2018-09-01T08:52:47.516Z,360.00
2018-09-01T08:53:47.511Z,352.00
2018-09-01T08:54:47.150Z,344.00
2018-09-01T08:55:47.480Z,344.00
2018-09-01T08:56:47.493Z,340.00
2018-09-01T08:57:47.477Z,336.00
2018-09-01T08:58:47.467Z,336.00
2018-09-01T08:59:47.120Z,340.00
2018-09-01T09:00:47.112Z,340.00
2018-09-01T09:01:47.429Z,340.00
2018-09-01T09:02:47.107Z,344.00
2018-09-01T09:03:47.101Z,340.00
2018-09-01T09:04:47.106Z,336.00
2018-09-01T09:05:47.064Z,340.00
2018-09-01T09:06:47.417Z,340.00
2018-09-01T09:07:47.412Z,340.00
2018-09-01T09:08:47.071Z,336.00
2018-09-01T09:09:47.048Z,340.00
2018-09-01T09:10:47.385Z,336.00
2018-09-01T09:11:47.373Z,336.00
2018-09-01T09:12:47.020Z,336.00
2018-09-01T09:13:47.011Z,336.00
2018-09-01T09:14:47.335Z,332.00
2018-09-01T09:15:47.341Z,332.00
2018-09-01T09:16:47.342Z,332.00
2018-09-01T09:17:46.986Z,336.00
2018-09-01T09:18:47.332Z,336.00
2018-09-01T09:19:47.306Z,332.00
2018-09-01T09:20:46.969Z,332.00
2018-09-01T09:21:46.960Z,328.00
2018-09-01T09:22:47.306Z,324.00
2018-09-01T09:23:46.946Z,320.00
2018-09-01T09:24:46.939Z,328.00
2018-09-01T09:25:46.936Z,328.00
2018-09-01T09:26:47.275Z,328.00
2018-09-01T09:27:46.917Z,320.00
2018-09-01T09:28:46.920Z,320.00
2018-09-01T09:29:46.910Z,320.00
2018-09-01T09:30:47.231Z,320.00
2018-09-01T09:31:47.243Z,320.00
2018-09-01T09:32:47.239Z,320.00
2018-09-01T09:33:46.878Z,320.00
2018-09-01T09:34:47.206Z,324.00
2018-09-01T09:35:46.862Z,320.00
2018-09-01T09:36:47.196Z,316.00
2018-09-01T09:37:47.197Z,320.00
2018-09-01T09:38:47.196Z,316.00
2018-09-01T09:39:46.847Z,316.00
2018-09-01T09:40:46.834Z,316.00
2018-09-01T09:41:47.177Z,316.00
2018-09-01T09:42:47.143Z,316.00
2018-09-01T09:43:47.157Z,320.00
2018-09-01T09:44:47.145Z,320.00
2018-09-01T09:45:47.142Z,320.00
2018-09-01T09:46:47.113Z,328.00
2018-09-01T09:47:46.776Z,332.00
2018-09-01T09:48:46.797Z,336.00
2018-09-01T09:49:47.112Z,344.00
2018-09-01T09:50:47.092Z,344.00
2018-09-01T09:51:46.757Z,348.00
2018-09-01T09:52:46.742Z,348.00
2018-09-01T09:53:46.738Z,352.00
2018-09-01T09:54:46.728Z,352.00
2018-09-01T09:55:47.071Z,348.00
2018-09-01T09:56:46.725Z,348.00
2018-09-01T09:57:47.054Z,336.00
2018-09-01T09:58:46.709Z,328.00
2018-09-01T09:59:47.048Z,320.00
2018-09-01T10:00:47.037Z,312.00
2018-09-01T10:01:46.687Z,304.00
2018-09-01T10:02:46.670Z,300.00
2018-09-01T10:03:46.996Z,292.00
2018-09-01T10:04:46.658Z,296.00
2018-09-01T10:05:47.058Z,284.00
2018-09-01T10:06:46.646Z,284.00
2018-09-01T10:07:46.973Z,280.00
2018-09-01T10:08:46.977Z,280.00
2018-09-01T10:09:46.979Z,280.00
2018-09-01T10:10:46.947Z,284.00
2018-09-01T10:11:46.605Z,288.00
2018-09-01T10:12:46.606Z,296.00
2018-09-01T10:13:46.921Z,316.00
2018-09-01T10:14:46.588Z,328.00
2018-09-01T10:15:46.598Z,320.00
2018-09-01T10:16:46.907Z,320.00
2018-09-01T10:17:46.566Z,296.00
2018-09-01T10:18:46.913Z,284.00
2018-09-01T10:19:46.892Z,280.00
2018-09-01T10:20:46.545Z,280.00
2018-09-01T10:21:46.871Z,276.00
2018-09-01T10:22:46.885Z,276.00
2018-09-01T10:23:46.884Z,276.00
2018-09-01T10:24:46.538Z,276.00
2018-09-01T10:25:46.858Z,276.00
2018-09-01T10:26:46.509Z,268.00
2018-09-01T10:27:46.832Z,264.00
2018-09-01T10:28:46.841Z,260.00
2018-09-01T10:29:46.817Z,252.00
2018-09-01T10:30:46.479Z,252.00
2018-09-01T10:31:46.467Z,252.00
2018-09-01T10:32:46.460Z,252.00
2018-09-01T10:33:46.477Z,256.00
2018-09-01T10:34:46.460Z,256.00
2018-09-01T10:35:46.767Z,256.00
2018-09-01T10:36:46.435Z,260.00
2018-09-01T10:37:46.766Z,260.00
2018-09-01T10:38:46.421Z,260.00
2018-09-01T10:39:46.436Z,256.00
2018-09-01T10:40:46.400Z,248.00
2018-09-01T10:41:46.755Z,248.00
2018-09-01T10:42:46.386Z,244.00
2018-09-01T10:43:46.722Z,240.00
2018-09-01T10:44:46.728Z,240.00
2018-09-01T10:45:46.369Z,240.00
2018-09-01T10:46:46.690Z,240.00
2018-09-01T10:47:46.381Z,236.00
2018-09-01T10:48:46.345Z,236.00
2018-09-01T10:49:46.693Z,236.00
2018-09-01T10:50:46.340Z,232.00
2018-09-01T10:51:46.659Z,232.00
2018-09-01T10:52:46.332Z,232.00
2018-09-01T10:53:46.654Z,232.00
2018-09-01T10:54:46.655Z,228.00
2018-09-01T10:55:46.627Z,232.00
2018-09-01T10:56:46.630Z,228.00
2018-09-01T10:57:46.295Z,228.00
2018-09-01T10:58:46.660Z,228.00
2018-09-01T10:59:46.632Z,224.00
2018-09-01T11:00:46.293Z,224.00
2018-09-01T11:01:46.593Z,224.00
2018-09-01T11:02:46.585Z,228.00
2018-09-01T11:03:46.240Z,224.00
2018-09-01T11:04:46.588Z,220.00
2018-09-01T11:05:46.243Z,220.00
2018-09-01T11:06:46.221Z,224.00
2018-09-01T11:07:46.208Z,224.00
2018-09-01T11:08:46.205Z,228.00
2018-09-01T11:09:46.545Z,224.00
2018-09-01T11:10:46.204Z,224.00
2018-09-01T11:11:46.518Z,224.00
2018-09-01T11:12:46.206Z,228.00
2018-09-01T11:13:46.178Z,224.00
2018-09-01T11:14:46.520Z,224.00
2018-09-01T11:15:46.496Z,228.00
2018-09-01T11:16:46.151Z,228.00
2018-09-01T11:17:46.203Z,224.00
2018-09-01T11:18:46.148Z,224.00
2018-09-01T11:19:46.459Z,228.00
2018-09-01T11:20:46.156Z,224.00
2018-09-01T11:21:46.494Z,224.00
2018-09-01T11:22:46.107Z,224.00
2018-09-01T11:23:46.430Z,224.00
2018-09-01T11:24:46.448Z,224.00
2018-09-01T11:25:46.428Z,224.00
2018-09-01T11:26:46.082Z,224.00
2018-09-01T11:27:46.107Z,224.00
2018-09-01T11:28:46.065Z,224.00
2018-09-01T11:29:46.392Z,224.00
2018-09-01T11:30:46.402Z,224.00
2018-09-01T11:31:46.046Z,220.00
2018-09-01T11:32:46.392Z,224.00
2018-09-01T11:33:46.025Z,224.00
2018-09-01T11:34:46.354Z,224.00
2018-09-01T11:35:46.017Z,224.00
2018-09-01T11:36:46.394Z,224.00
2018-09-01T11:37:46.353Z,228.00
2018-09-01T11:38:45.999Z,220.00
2018-09-01T11:39:46.347Z,224.00
2018-09-01T11:40:45.981Z,224.00
2018-09-01T11:41:46.304Z,228.00
2018-09-01T11:42:46.370Z,228.00
2018-09-01T11:43:45.963Z,224.00
2018-09-01T11:44:46.304Z,228.00
2018-09-01T11:45:46.276Z,228.00
2018-09-01T11:46:45.942Z,228.00
2018-09-01T11:47:45.928Z,228.00
2018-09-01T11:48:46.257Z,228.00
2018-09-01T11:49:45.921Z,228.00
2018-09-01T11:50:45.916Z,228.00
2018-09-01T11:51:45.903Z,228.00
2018-09-01T11:52:45.894Z,228.00
2018-09-01T11:53:45.894Z,228.00
2018-09-01T11:54:46.231Z,228.00
2018-09-01T11:55:45.874Z,228.00
2018-09-01T11:56:46.219Z,228.00
2018-09-01T11:57:46.211Z,228.00
2018-09-01T11:58:45.916Z,228.00
2018-09-01T11:59:46.175Z,228.00
2018-09-01T12:00:45.838Z,224.00
2018-09-01T12:01:45.845Z,228.00
2018-09-01T12:02:46.173Z,228.00
2018-09-01T12:03:46.177Z,224.00
2018-09-01T12:04:45.835Z,224.00
2018-09-01T12:05:46.152Z,224.00
2018-09-01T12:06:45.792Z,224.00
2018-09-01T12:07:46.139Z,224.00
2018-09-01T12:08:46.174Z,224.00
2018-09-01T12:09:46.107Z,228.00
2018-09-01T12:10:45.766Z,224.00
2018-09-01T12:11:46.098Z,228.00
2018-09-01T12:12:45.754Z,224.00
2018-09-01T12:13:45.742Z,224.00
2018-09-01T12:14:46.092Z,224.00
2018-09-01T12:15:46.092Z,224.00
2018-09-01T12:16:46.084Z,224.00
2018-09-01T12:17:45.712Z,220.00
2018-09-01T12:18:45.703Z,224.00
2018-09-01T12:19:45.711Z,228.00
2018-09-01T12:20:45.698Z,228.00
2018-09-01T12:21:46.025Z,224.00
2018-09-01T12:22:45.678Z,224.00
2018-09-01T12:23:46.025Z,224.00
2018-09-01T12:24:45.659Z,228.00
2018-09-01T12:25:46.014Z,224.00
2018-09-01T12:26:45.655Z,228.00
2018-09-01T12:27:45.652Z,228.00
2018-09-01T12:28:45.988Z,228.00